Time;durP1;ratioP1;P1;durP2;ratioP2;P2;SDS_P1;SDS_P2;PMS_P1;PMS_P2;Temp;Humidity;BMP_temperature;BMP_pressure;BME280_temperature;BME280_humidity;BME280_pressure;Samples;Min_cycle;Max_cycle;Signal;HPM_P1;HPM_P2
2021/09/25 00:01:06;;;;;;;2.28;0.88;;;;;;;;;;5066110;28;20068;-76
2021/09/25 00:03:32;;;;;;;1.88;1.00;;;;;;;;;;5069339;28;20343;-76
2021/09/25 00:05:59;;;;;;;1.80;1.13;;;;;;;;;;5070692;28;20064;-76
2021/09/25 00:08:25;;;;;;;2.30;1.10;;;;;;;;;;5069176;28;20098;-76
2021/09/25 00:10:52;;;;;;;2.78;1.20;;;;;;;;;;5085018;28;20491;-76
2021/09/25 00:13:18;;;;;;;1.75;1.08;;;;;;;;;;5079313;28;20126;-76
2021/09/25 00:15:45;;;;;;;2.78;1.20;;;;;;;;;;5085108;28;20047;-77
2021/09/25 00:18:11;;;;;;;2.45;1.15;;;;;;;;;;5081938;28;20526;-77
2021/09/25 00:20:38;;;;;;;2.17;1.17;;;;;;;;;;5087099;28;20075;-77
2021/09/25 00:23:05;;;;;;;2.38;1.10;;;;;;;;;;5089705;28;20504;-76
2021/09/25 00:25:32;;;;;;;1.92;1.10;;;;;;;;;;5082830;28;20085;-76
2021/09/25 00:27:58;;;;;;;2.63;1.20;;;;;;;;;;5087435;28;20510;-77
2021/09/25 00:30:25;;;;;;;2.08;1.10;;;;;;;;;;5078823;28;20059;-77
2021/09/25 00:32:51;;;;;;;2.40;1.00;;;;;;;;;;5084890;28;20068;-77
2021/09/25 00:35:18;;;;;;;2.10;1.23;;;;;;;;;;5087818;28;20032;-77
2021/09/25 00:37:45;;;;;;;2.70;1.10;;;;;;;;;;5089574;28;20059;-77
2021/09/25 00:40:13;;;;;;;2.75;1.00;;;;;;;;;;5086542;28;20044;-76
2021/09/25 00:42:40;;;;;;;3.13;0.95;;;;;;;;;;5087503;28;20059;-77
2021/09/25 00:45:07;;;;;;;1.70;1.08;;;;;;;;;;5086630;28;20432;-76
2021/09/25 00:47:34;;;;;;;2.03;1.10;;;;;;;;;;5090093;28;20500;-76
2021/09/25 00:50:01;;;;;;;2.75;1.08;;;;;;;;;;5086334;28;20079;-77
2021/09/25 00:52:27;;;;;;;2.70;1.17;;;;;;;;;;5086313;28;20068;-77
2021/09/25 00:54:54;;;;;;;2.63;1.10;;;;;;;;;;5086666;28;20067;-76
2021/09/25 00:57:20;;;;;;;2.38;1.00;;;;;;;;;;5086606;28;20060;-77
2021/09/25 00:59:47;;;;;;;2.22;1.23;;;;;;;;;;5075220;28;20094;-79
2021/09/25 01:02:17;;;;;;;2.20;1.17;;;;;;;;;;5082371;28;20074;-77
2021/09/25 01:04:47;;;;;;;3.43;1.60;;;;;;;;;;5064961;28;20040;-77
2021/09/25 01:07:14;;;;;;;3.00;1.10;;;;;;;;;;5075843;28;20085;-76
2021/09/25 01:09:41;;;;;;;2.38;1.20;;;;;;;;;;5065411;28;20107;-76
2021/09/25 01:12:08;;;;;;;2.58;1.00;;;;;;;;;;5084743;28;20036;-77
2021/09/25 01:14:34;;;;;;;1.75;1.00;;;;;;;;;;5087777;28;20117;-76
2021/09/25 01:17:05;;;;;;;3.70;1.45;;;;;;;;;;5087613;28;20056;-76
2021/09/25 01:19:31;;;;;;;2.03;0.90;;;;;;;;;;5084249;28;20358;-76
2021/09/25 01:21:58;;;;;;;2.22;0.90;;;;;;;;;;5083734;28;20465;-76
2021/09/25 01:24:25;;;;;;;3.38;1.02;;;;;;;;;;5087578;28;20075;-76
2021/09/25 01:26:51;;;;;;;2.17;1.08;;;;;;;;;;5087768;28;20063;-76
2021/09/25 01:29:17;;;;;;;2.10;0.90;;;;;;;;;;5081644;28;20079;-76
2021/09/25 01:31:44;;;;;;;2.08;1.45;;;;;;;;;;5084624;28;20068;-76
2021/09/25 01:34:10;;;;;;;3.55;1.45;;;;;;;;;;5086213;28;20060;-76
2021/09/25 01:36:37;;;;;;;2.75;1.10;;;;;;;;;;5089767;28;20056;-76
2021/09/25 01:39:03;;;;;;;1.80;1.00;;;;;;;;;;5086653;28;20077;-75
2021/09/25 01:41:30;;;;;;;1.90;1.00;;;;;;;;;;5088993;28;20036;-76
2021/09/25 01:43:56;;;;;;;4.88;1.10;;;;;;;;;;5088118;28;20068;-76
2021/09/25 01:46:22;;;;;;;1.42;0.80;;;;;;;;;;5088262;28;20492;-76
2021/09/25 01:48:49;;;;;;;2.75;1.00;;;;;;;;;;5079703;28;20500;-76
2021/09/25 01:51:15;;;;;;;2.25;1.00;;;;;;;;;;5084196;28;20086;-76
2021/09/25 01:53:42;;;;;;;2.17;1.05;;;;;;;;;;5082898;28;20509;-76
2021/09/25 01:56:09;;;;;;;1.65;0.90;;;;;;;;;;5086549;28;20067;-78
2021/09/25 01:58:36;;;;;;;2.15;0.98;;;;;;;;;;5086778;28;20063;-76
2021/09/25 02:01:03;;;;;;;2.42;1.10;;;;;;;;;;5075063;28;20052;-76
2021/09/25 02:03:30;;;;;;;3.83;1.02;;;;;;;;;;5084032;28;21356;-76
2021/09/25 02:05:56;;;;;;;2.55;1.20;;;;;;;;;;5071819;28;20125;-76
2021/09/25 02:08:23;;;;;;;2.85;1.00;;;;;;;;;;5082925;28;20059;-76
2021/09/25 02:10:49;;;;;;;2.40;1.10;;;;;;;;;;5088699;28;20044;-76
2021/09/25 02:13:16;;;;;;;2.03;1.00;;;;;;;;;;5085398;28;20056;-76
2021/09/25 02:15:42;;;;;;;3.53;1.02;;;;;;;;;;5080782;28;20105;-76
2021/09/25 02:18:08;;;;;;;3.35;1.20;;;;;;;;;;5083590;28;20125;-76
2021/09/25 02:20:35;;;;;;;2.55;1.00;;;;;;;;;;5075803;28;20052;-76
2021/09/25 02:23:01;;;;;;;2.55;0.93;;;;;;;;;;5064478;28;20506;-76
2021/09/25 02:25:28;;;;;;;2.03;1.00;;;;;;;;;;5085708;28;20076;-77
2021/09/25 02:27:54;;;;;;;2.13;1.15;;;;;;;;;;5088352;28;20064;-76
2021/09/25 02:30:21;;;;;;;1.55;0.88;;;;;;;;;;5082958;28;20064;-76
2021/09/25 02:32:48;;;;;;;3.75;1.35;;;;;;;;;;5088698;28;20075;-76
2021/09/25 02:35:16;;;;;;;3.22;1.10;;;;;;;;;;5084157;28;20046;-76
2021/09/25 02:37:43;;;;;;;3.08;1.42;;;;;;;;;;5089000;28;20493;-76
2021/09/25 02:40:09;;;;;;;1.90;0.95;;;;;;;;;;5086178;28;20063;-77
2021/09/25 02:42:36;;;;;;;3.65;1.40;;;;;;;;;;5076745;28;20066;-77
2021/09/25 02:45:03;;;;;;;4.10;1.00;;;;;;;;;;5079724;28;20036;-77
2021/09/25 02:47:30;;;;;;;2.50;1.00;;;;;;;;;;5069402;28;20067;-77
2021/09/25 02:49:56;;;;;;;2.10;1.00;;;;;;;;;;5068775;28;20051;-78
2021/09/25 02:52:22;;;;;;;3.90;1.40;;;;;;;;;;5077960;28;20056;-78
2021/09/25 02:54:49;;;;;;;3.03;1.20;;;;;;;;;;5068479;28;20094;-77
2021/09/25 02:57:15;;;;;;;4.30;1.15;;;;;;;;;;5061047;28;20060;-77
2021/09/25 02:59:41;;;;;;;2.75;1.23;;;;;;;;;;5074731;28;20103;-77
2021/09/25 03:02:08;;;;;;;2.67;1.00;;;;;;;;;;5082320;28;20074;-77
2021/09/25 03:04:34;;;;;;;3.25;1.02;;;;;;;;;;5082048;28;20036;-77
2021/09/25 03:07:01;;;;;;;2.30;0.93;;;;;;;;;;5080307;28;20082;-78
2021/09/25 03:09:27;;;;;;;3.58;0.98;;;;;;;;;;5082381;28;20425;-77
2021/09/25 03:11:54;;;;;;;4.72;1.13;;;;;;;;;;5085239;28;20067;-78
2021/09/25 03:14:20;;;;;;;3.42;1.00;;;;;;;;;;5077200;28;20075;-77
2021/09/25 03:16:47;;;;;;;1.95;1.00;;;;;;;;;;5084995;28;20055;-77
2021/09/25 03:19:13;;;;;;;3.80;1.30;;;;;;;;;;5084345;28;20043;-77
2021/09/25 03:21:40;;;;;;;3.25;1.20;;;;;;;;;;5085994;28;20427;-77
2021/09/25 03:24:06;;;;;;;3.22;1.23;;;;;;;;;;5085101;28;20078;-77
2021/09/25 03:26:32;;;;;;;3.58;1.25;;;;;;;;;;5084628;28;20117;-77
2021/09/25 03:28:59;;;;;;;3.05;1.20;;;;;;;;;;5087472;28;20500;-77
2021/09/25 03:31:25;;;;;;;1.90;1.00;;;;;;;;;;5080782;28;20043;-76
2021/09/25 03:33:52;;;;;;;3.00;0.90;;;;;;;;;;5083803;28;20088;-77
2021/09/25 03:36:18;;;;;;;3.40;1.10;;;;;;;;;;5083495;28;20117;-77
2021/09/25 03:38:44;;;;;;;3.15;1.10;;;;;;;;;;5087137;28;20063;-77
2021/09/25 03:41:11;;;;;;;4.30;0.98;;;;;;;;;;5083603;28;20032;-77
2021/09/25 03:43:37;;;;;;;4.28;1.10;;;;;;;;;;5086570;28;20060;-77
2021/09/25 03:46:04;;;;;;;5.00;1.48;;;;;;;;;;5084072;28;20060;-77
2021/09/25 03:48:30;;;;;;;2.65;1.33;;;;;;;;;;5087447;28;20040;-77
2021/09/25 03:50:58;;;;;;;2.40;1.00;;;;;;;;;;5086163;28;20068;-77
2021/09/25 03:53:25;;;;;;;4.40;1.02;;;;;;;;;;5077750;28;20105;-77
2021/09/25 03:55:51;;;;;;;3.75;1.00;;;;;;;;;;5086604;28;20043;-77
2021/09/25 03:58:18;;;;;;;3.28;1.05;;;;;;;;;;5087107;28;20710;-77
2021/09/25 04:00:44;;;;;;;3.97;0.98;;;;;;;;;;5091215;28;20036;-77
2021/09/25 04:03:11;;;;;;;3.15;1.00;;;;;;;;;;5089292;28;20106;-77
2021/09/25 04:05:38;;;;;;;3.75;1.60;;;;;;;;;;5084416;28;20053;-77
2021/09/25 04:08:04;;;;;;;2.80;1.05;;;;;;;;;;5070129;28;20040;-76
2021/09/25 04:10:31;;;;;;;3.22;0.88;;;;;;;;;;5074436;28;20124;-77
2021/09/25 04:12:58;;;;;;;2.60;1.20;;;;;;;;;;5080204;28;20055;-77
2021/09/25 04:15:25;;;;;;;2.13;1.00;;;;;;;;;;5079363;28;20055;-77
2021/09/25 04:17:52;;;;;;;2.13;0.85;;;;;;;;;;5090330;28;20063;-77
2021/09/25 04:20:18;;;;;;;4.07;1.15;;;;;;;;;;5079464;28;20087;-77
2021/09/25 04:22:45;;;;;;;3.67;1.30;;;;;;;;;;5095857;27;20071;-77
2021/09/25 04:25:11;;;;;;;2.60;1.10;;;;;;;;;;5088610;28;20090;-77
2021/09/25 04:27:38;;;;;;;3.05;1.05;;;;;;;;;;5088528;28;20105;-77
2021/09/25 04:30:04;;;;;;;2.78;1.00;;;;;;;;;;5088645;28;20101;-76
2021/09/25 04:32:31;;;;;;;2.63;0.90;;;;;;;;;;5088992;28;20059;-77
2021/09/25 04:34:57;;;;;;;2.15;1.05;;;;;;;;;;5090194;28;20071;-77
2021/09/25 04:37:23;;;;;;;7.85;1.10;;;;;;;;;;5087914;28;20066;-76
2021/09/25 04:39:50;;;;;;;3.30;0.95;;;;;;;;;;5090747;28;20059;-76
2021/09/25 04:42:16;;;;;;;2.53;1.27;;;;;;;;;;5081769;28;20061;-77
2021/09/25 04:44:43;;;;;;;3.08;1.17;;;;;;;;;;5085667;28;20079;-77
2021/09/25 04:47:09;;;;;;;3.65;1.00;;;;;;;;;;5087504;28;20045;-76
2021/09/25 04:49:35;;;;;;;2.45;0.85;;;;;;;;;;5085814;28;20138;-77
2021/09/25 04:52:02;;;;;;;3.35;0.93;;;;;;;;;;5081675;28;20084;-77
2021/09/25 04:54:28;;;;;;;2.55;1.00;;;;;;;;;;5086859;28;20057;-77
2021/09/25 04:56:55;;;;;;;4.47;1.10;;;;;;;;;;5088523;28;20032;-77
2021/09/25 04:59:21;;;;;;;4.97;1.48;;;;;;;;;;5089052;28;20125;-77
2021/09/25 05:01:47;;;;;;;4.93;1.08;;;;;;;;;;5068513;28;20063;-77
2021/09/25 05:04:14;;;;;;;3.90;1.30;;;;;;;;;;5084119;28;20074;-77
2021/09/25 05:06:40;;;;;;;4.20;0.90;;;;;;;;;;5084296;28;20060;-77
2021/09/25 05:09:07;;;;;;;4.53;1.00;;;;;;;;;;5074216;28;20068;-77
2021/09/25 05:11:33;;;;;;;2.83;1.13;;;;;;;;;;5053042;28;20067;-77
2021/09/25 05:14:01;;;;;;;4.53;1.20;;;;;;;;;;5068427;28;20064;-77
2021/09/25 05:16:27;;;;;;;4.40;1.05;;;;;;;;;;5066855;28;20520;-77
2021/09/25 05:18:53;;;;;;;3.40;1.10;;;;;;;;;;5069173;28;20044;-77
2021/09/25 05:21:21;;;;;;;3.75;1.27;;;;;;;;;;5066714;28;20516;-77
2021/09/25 05:23:48;;;;;;;3.92;1.15;;;;;;;;;;5066235;28;20060;-77
2021/09/25 05:26:14;;;;;;;4.30;1.23;;;;;;;;;;5086360;28;20093;-76
2021/09/25 05:28:42;;;;;;;5.70;1.50;;;;;;;;;;5081343;28;20048;-77
2021/09/25 05:31:11;;;;;;;2.78;1.10;;;;;;;;;;5067529;28;20125;-77
2021/09/25 05:33:39;;;;;;;3.80;1.20;;;;;;;;;;5075466;28;20105;-77
2021/09/25 05:36:05;;;;;;;5.47;1.10;;;;;;;;;;5072060;28;20125;-76
2021/09/25 05:38:32;;;;;;;2.40;0.95;;;;;;;;;;5078203;28;20125;-78
2021/09/25 05:40:58;;;;;;;4.28;1.15;;;;;;;;;;5073224;28;20056;-77
2021/09/25 05:43:25;;;;;;;3.08;1.17;;;;;;;;;;5071433;28;20060;-77
2021/09/25 05:45:51;;;;;;;2.92;1.40;;;;;;;;;;5064173;28;20134;-77
2021/09/25 05:48:17;;;;;;;2.92;1.10;;;;;;;;;;5077402;28;20052;-77
2021/09/25 05:50:45;;;;;;;4.18;0.90;;;;;;;;;;5070115;28;20056;-77
2021/09/25 05:53:11;;;;;;;4.43;1.20;;;;;;;;;;5080952;28;20067;-77
2021/09/25 05:55:40;;;;;;;4.60;1.13;;;;;;;;;;5087161;28;20055;-76
2021/09/25 05:58:06;;;;;;;4.63;1.10;;;;;;;;;;5084439;28;20163;-76
2021/09/25 06:00:33;;;;;;;2.70;1.40;;;;;;;;;;5088238;28;20044;-76
2021/09/25 06:03:01;;;;;;;7.28;1.52;;;;;;;;;;5085828;28;20059;-76
2021/09/25 06:05:30;;;;;;;3.92;1.10;;;;;;;;;;5086462;28;20407;-77
2021/09/25 06:07:56;;;;;;;2.30;1.05;;;;;;;;;;5083770;28;20066;-76
2021/09/25 06:10:23;;;;;;;3.95;1.15;;;;;;;;;;5082921;28;20106;-75
2021/09/25 06:12:49;;;;;;;3.95;1.10;;;;;;;;;;5087557;28;20052;-76
2021/09/25 06:15:16;;;;;;;4.80;1.27;;;;;;;;;;5086601;28;20484;-76
2021/09/25 06:17:43;;;;;;;3.50;1.00;;;;;;;;;;5087912;28;20073;-76
2021/09/25 06:20:10;;;;;;;5.00;1.75;;;;;;;;;;5087294;28;20056;-76
2021/09/25 06:22:37;;;;;;;2.03;0.90;;;;;;;;;;5083653;28;20067;-75
2021/09/25 06:25:04;;;;;;;4.18;1.13;;;;;;;;;;5086815;28;20084;-76
2021/09/25 06:27:30;;;;;;;4.13;1.00;;;;;;;;;;5076690;28;20588;-76
2021/09/25 06:29:57;;;;;;;3.40;1.10;;;;;;;;;;5087486;28;20109;-75
2021/09/25 06:32:26;;;;;;;3.72;1.20;;;;;;;;;;5087128;28;20024;-76
2021/09/25 06:34:53;;;;;;;4.05;1.02;;;;;;;;;;5087288;28;20048;-76
2021/09/25 06:37:19;;;;;;;3.53;1.45;;;;;;;;;;5084777;28;20051;-75
2021/09/25 06:39:45;;;;;;;3.85;1.40;;;;;;;;;;5073090;28;20060;-76
2021/09/25 06:42:12;;;;;;;3.53;1.20;;;;;;;;;;5066090;28;20454;-76
2021/09/25 06:44:38;;;;;;;4.03;1.20;;;;;;;;;;5087797;28;20062;-76
2021/09/25 06:47:05;;;;;;;4.43;1.05;;;;;;;;;;5086410;28;20028;-76
2021/09/25 06:49:31;;;;;;;4.68;1.10;;;;;;;;;;5086088;28;20063;-77
2021/09/25 06:51:57;;;;;;;4.13;1.20;;;;;;;;;;5086100;28;20082;-77
2021/09/25 06:54:24;;;;;;;3.83;1.20;;;;;;;;;;5082552;28;20483;-77
2021/09/25 06:56:50;;;;;;;3.00;1.05;;;;;;;;;;5082316;28;20129;-78
2021/09/25 06:59:16;;;;;;;3.15;1.02;;;;;;;;;;5084596;28;20079;-78
2021/09/25 07:01:43;;;;;;;5.47;1.20;;;;;;;;;;5085973;28;20212;-78
2021/09/25 07:04:09;;;;;;;3.65;1.13;;;;;;;;;;5084263;28;20071;-77
2021/09/25 07:06:39;;;;;;;4.63;1.17;;;;;;;;;;5084472;28;20483;-78
2021/09/25 07:09:06;;;;;;;4.80;1.17;;;;;;;;;;5081979;28;20549;-76
2021/09/25 07:11:33;;;;;;;3.47;1.00;;;;;;;;;;5085030;28;20043;-77
2021/09/25 07:13:59;;;;;;;5.28;1.27;;;;;;;;;;5084196;28;20538;-78
2021/09/25 07:16:26;;;;;;;5.10;1.23;;;;;;;;;;5084443;28;20063;-78
2021/09/25 07:18:52;;;;;;;4.13;0.93;;;;;;;;;;5083667;28;20036;-78
2021/09/25 07:21:19;;;;;;;3.50;1.13;;;;;;;;;;5070774;28;20048;-78
2021/09/25 07:23:45;;;;;;;4.80;1.50;;;;;;;;;;5069193;28;20071;-77
2021/09/25 07:26:11;;;;;;;3.13;1.17;;;;;;;;;;5077034;28;20311;-77
2021/09/25 07:28:38;;;;;;;3.40;1.00;;;;;;;;;;5061984;28;20055;-77
2021/09/25 07:31:06;;;;;;;4.72;1.17;;;;;;;;;;5082003;28;20046;-77
2021/09/25 07:33:32;;;;;;;2.38;0.93;;;;;;;;;;5083438;28;20385;-77
2021/09/25 07:36:00;;;;;;;4.88;0.98;;;;;;;;;;5084572;28;20105;-76
2021/09/25 07:38:27;;;;;;;5.30;1.35;;;;;;;;;;5081313;28;20090;-76
2021/09/25 07:40:54;;;;;;;2.45;1.00;;;;;;;;;;5077750;28;20052;-77
2021/09/25 07:43:21;;;;;;;4.32;0.80;;;;;;;;;;5081703;28;20121;-77
2021/09/25 07:45:47;;;;;;;4.95;1.20;;;;;;;;;;5084206;28;20484;-76
2021/09/25 07:48:14;;;;;;;3.83;0.93;;;;;;;;;;5083934;28;20183;-76
2021/09/25 07:50:41;;;;;;;4.90;1.17;;;;;;;;;;5084215;28;20066;-76
2021/09/25 07:53:07;;;;;;;4.03;1.10;;;;;;;;;;5082558;28;20044;-76
2021/09/25 07:55:34;;;;;;;3.15;0.80;;;;;;;;;;5082285;28;20077;-76
2021/09/25 07:58:01;;;;;;;3.38;1.25;;;;;;;;;;5086098;28;20056;-76
2021/09/25 08:00:27;;;;;;;4.40;1.33;;;;;;;;;;5083505;28;20116;-76
2021/09/25 08:02:53;;;;;;;3.08;1.00;;;;;;;;;;5084455;28;20466;-77
2021/09/25 08:05:20;;;;;;;4.10;1.20;;;;;;;;;;5083240;28;20085;-77
2021/09/25 08:07:46;;;;;;;2.58;0.73;;;;;;;;;;5076231;28;20071;-77
2021/09/25 08:10:14;;;;;;;3.83;1.00;;;;;;;;;;5077624;28;20075;-77
2021/09/25 08:12:41;;;;;;;3.08;0.85;;;;;;;;;;5084884;28;20056;-77
2021/09/25 08:15:08;;;;;;;3.03;0.93;;;;;;;;;;5082046;28;20080;-77
2021/09/25 08:17:34;;;;;;;3.53;1.17;;;;;;;;;;5083543;28;20059;-77
2021/09/25 08:20:01;;;;;;;2.63;0.90;;;;;;;;;;5076603;28;20056;-77
2021/09/25 08:22:27;;;;;;;4.18;1.10;;;;;;;;;;5085404;28;20064;-81
2021/09/25 08:24:54;;;;;;;5.97;1.40;;;;;;;;;;5080729;28;20064;-82
2021/09/25 08:27:20;;;;;;;5.22;1.23;;;;;;;;;;5082459;28;20437;-80
2021/09/25 08:29:47;;;;;;;4.45;1.30;;;;;;;;;;5083794;28;20064;-80
2021/09/25 08:32:13;;;;;;;5.78;1.80;;;;;;;;;;5084025;28;20067;-81
2021/09/25 08:34:40;;;;;;;7.35;1.40;;;;;;;;;;5084425;28;20068;-80
2021/09/25 08:37:06;;;;;;;4.75;1.40;;;;;;;;;;5082565;28;20063;-79
2021/09/25 08:39:33;;;;;;;4.57;1.38;;;;;;;;;;5064842;28;20086;-79
2021/09/25 08:42:00;;;;;;;5.47;1.70;;;;;;;;;;5065726;28;20168;-82
2021/09/25 08:44:27;;;;;;;11.23;1.77;;;;;;;;;;5077746;28;20059;-86
2021/09/25 08:46:54;;;;;;;11.25;1.80;;;;;;;;;;5071333;28;20093;-86
2021/09/25 08:49:20;;;;;;;7.68;1.58;;;;;;;;;;5086476;28;20075;-87
2021/09/25 08:51:46;;;;;;;5.28;1.35;;;;;;;;;;5088010;28;20067;-86
2021/09/25 08:54:14;;;;;;;4.68;1.40;;;;;;;;;;5086904;28;20051;-86
2021/09/25 08:56:40;;;;;;;6.57;1.25;;;;;;;;;;5079305;28;20047;-87
2021/09/25 08:59:07;;;;;;;5.35;1.30;;;;;;;;;;5063338;28;20065;-85
2021/09/25 09:01:34;;;;;;;6.47;1.52;;;;;;;;;;5058212;28;20056;-86
2021/09/25 09:04:00;;;;;;;5.43;1.23;;;;;;;;;;5075529;28;20078;-86
2021/09/25 09:06:29;;;;;;;5.55;1.20;;;;;;;;;;5063062;28;20547;-87
2021/09/25 09:08:56;;;;;;;5.57;1.38;;;;;;;;;;5078836;28;20063;-87
2021/09/25 09:11:24;;;;;;;4.50;1.20;;;;;;;;;;5063433;28;20098;-87
2021/09/25 09:13:52;;;;;;;6.47;1.63;;;;;;;;;;5059795;28;20494;-89
2021/09/25 09:16:19;;;;;;;6.65;1.15;;;;;;;;;;5046171;28;20217;-88
2021/09/25 09:18:47;;;;;;;7.13;1.10;;;;;;;;;;5061670;28;20551;-88
2021/09/25 09:21:15;;;;;;;5.47;1.30;;;;;;;;;;5051008;28;20138;-87
2021/09/25 09:23:48;;;;;;;4.70;1.10;;;;;;;;;;5064550;28;20121;-88
2021/09/25 09:26:16;;;;;;;8.40;1.65;;;;;;;;;;5069268;28;20557;-88
2021/09/25 09:28:43;;;;;;;6.22;1.55;;;;;;;;;;5069638;28;20547;-87
2021/09/25 09:31:11;;;;;;;6.13;1.48;;;;;;;;;;5085021;28;20097;-88
2021/09/25 09:33:39;;;;;;;5.13;1.67;;;;;;;;;;5083504;28;20505;-89
2021/09/25 09:36:14;;;;;;;4.45;1.30;;;;;;;;;;5069488;28;20032;-87
2021/09/25 09:38:41;;;;;;;6.47;1.17;;;;;;;;;;5068702;28;21572;-88
2021/09/25 09:41:11;;;;;;;5.43;1.35;;;;;;;;;;5070940;28;20512;-88
2021/09/25 09:43:37;;;;;;;5.95;1.73;;;;;;;;;;5051458;28;20057;-87
2021/09/25 09:46:04;;;;;;;3.83;1.30;;;;;;;;;;5053597;28;20409;-88
2021/09/25 09:48:30;;;;;;;6.88;1.17;;;;;;;;;;5067847;28;20077;-88
2021/09/25 09:50:57;;;;;;;3.40;0.95;;;;;;;;;;5055209;28;20032;-88
2021/09/25 09:53:24;;;;;;;5.03;1.08;;;;;;;;;;5078267;28;20036;-89
2021/09/25 09:55:50;;;;;;;4.20;1.20;;;;;;;;;;5059387;28;20040;-89
2021/09/25 09:58:18;;;;;;;4.95;1.23;;;;;;;;;;5070115;28;20058;-88
2021/09/25 10:00:45;;;;;;;4.53;1.10;;;;;;;;;;5069224;28;20085;-88
2021/09/25 10:03:11;;;;;;;7.43;1.65;;;;;;;;;;5085065;28;20036;-88
2021/09/25 10:05:40;;;;;;;5.13;1.05;;;;;;;;;;5082776;28;20399;-89
2021/09/25 10:08:10;;;;;;;7.78;1.85;;;;;;;;;;5095233;27;20098;-89
2021/09/25 10:10:39;;;;;;;6.38;1.15;;;;;;;;;;5073611;28;20044;-89
2021/09/25 10:13:05;;;;;;;6.82;1.25;;;;;;;;;;5054698;28;20028;-87
2021/09/25 10:15:32;;;;;;;4.03;1.05;;;;;;;;;;5069552;28;20284;-89
2021/09/25 10:17:59;;;;;;;5.65;1.20;;;;;;;;;;5067057;28;20043;-90
2021/09/25 10:20:25;;;;;;;3.88;0.90;;;;;;;;;;5054660;28;20089;-91
2021/09/25 10:22:52;;;;;;;4.68;1.10;;;;;;;;;;5071580;28;20649;-90
2021/09/25 10:25:20;;;;;;;7.45;1.42;;;;;;;;;;5049567;28;20500;-90
2021/09/25 10:27:48;;;;;;;3.35;1.08;;;;;;;;;;5067988;28;20827;-90
2021/09/25 10:30:15;;;;;;;3.42;1.20;;;;;;;;;;5078263;28;20098;-90
2021/09/25 10:32:51;;;;;;;7.65;1.30;;;;;;;;;;5041988;28;20048;-90
2021/09/25 10:35:20;;;;;;;5.95;1.20;;;;;;;;;;5061012;28;20500;-90
2021/09/25 10:37:46;;;;;;;4.90;1.15;;;;;;;;;;5058794;28;20032;-89
2021/09/25 10:40:16;;;;;;;4.57;1.10;;;;;;;;;;5067418;28;20032;-90
2021/09/25 10:42:52;;;;;;;5.88;0.90;;;;;;;;;;5063346;28;20032;-88
2021/09/25 10:45:30;;;;;;;5.10;1.25;;;;;;;;;;5067667;28;20136;-89
2021/09/25 10:48:06;;;;;;;4.40;1.20;;;;;;;;;;5082134;28;20504;-89
2021/09/25 10:50:34;;;;;;;4.97;1.40;;;;;;;;;;5053491;28;20395;-89
2021/09/25 10:53:11;;;;;;;4.65;1.02;;;;;;;;;;5055564;28;20443;-88
2021/09/25 10:55:39;;;;;;;4.30;1.40;;;;;;;;;;5046617;28;21590;-89
2021/09/25 10:58:20;;;;;;;4.55;1.10;;;;;;;;;;5057389;28;20070;-89
2021/09/25 11:00:47;;;;;;;;;;;;;;;;;;5076313;28;20089;-89
2021/09/25 11:03:32;;;;;;;4.28;1.00;;;;;;;;;;5066349;28;20328;-88
2021/09/25 11:06:02;;;;;;;2.85;0.98;;;;;;;;;;5047078;28;20064;-88
2021/09/25 11:08:32;;;;;;;6.43;1.55;;;;;;;;;;5068093;28;20035;-86
2021/09/25 11:11:12;;;;;;;5.18;1.15;;;;;;;;;;5077694;28;20157;-88
2021/09/25 11:13:57;;;;;;;4.50;1.40;;;;;;;;;;5059281;28;20036;-87
2021/09/25 11:16:42;;;;;;;6.53;1.52;;;;;;;;;;5034229;28;20106;-89
2021/09/25 11:19:09;;;;;;;3.40;1.17;;;;;;;;;;5058532;28;20045;-88
2021/09/25 11:21:36;;;;;;;4.40;1.02;;;;;;;;;;5055451;28;20028;-89
2021/09/25 11:24:03;;;;;;;4.15;0.90;;;;;;;;;;5050074;28;20500;-88
2021/09/25 11:26:29;;;;;;;2.63;1.08;;;;;;;;;;5050950;28;20476;-88
2021/09/25 11:29:09;;;;;;;4.95;1.35;;;;;;;;;;5051158;28;20075;-88
2021/09/25 11:31:36;;;;;;;4.70;1.40;;;;;;;;;;5078084;28;20036;-88
2021/09/25 11:34:21;;;;;;;4.22;1.08;;;;;;;;;;5021793;28;20369;-87
2021/09/25 11:36:55;;;;;;;3.47;1.10;;;;;;;;;;5057468;28;20099;-88
2021/09/25 11:39:34;;;;;;;6.15;1.38;;;;;;;;;;5053433;28;20121;-87
2021/09/25 11:42:16;;;;;;;4.38;1.13;;;;;;;;;;5053018;28;20040;-88
2021/09/25 11:44:43;;;;;;;5.55;1.25;;;;;;;;;;5058400;28;20117;-88
2021/09/25 11:47:09;;;;;;;2.25;0.82;;;;;;;;;;5046317;28;20417;-88
2021/09/25 11:49:36;;;;;;;3.65;0.95;;;;;;;;;;5067206;28;20073;-87
2021/09/25 11:52:03;;;;;;;4.13;1.20;;;;;;;;;;5056847;28;20119;-87
2021/09/25 11:54:29;;;;;;;5.53;1.30;;;;;;;;;;5066107;28;20032;-87
2021/09/25 11:56:56;;;;;;;3.75;0.93;;;;;;;;;;5067714;28;20032;-88
2021/09/25 11:59:25;;;;;;;5.38;0.90;;;;;;;;;;5065600;28;20071;-88
2021/09/25 12:01:51;;;;;;;2.70;0.85;;;;;;;;;;5058132;28;20060;-87
2021/09/25 12:04:17;;;;;;;4.80;1.10;;;;;;;;;;5060258;28;20117;-87
2021/09/25 12:06:52;;;;;;;3.60;1.10;;;;;;;;;;5085509;28;20075;-87
2021/09/25 12:09:18;;;;;;;6.28;1.08;;;;;;;;;;5082243;28;20102;-87
2021/09/25 12:11:44;;;;;;;3.35;1.27;;;;;;;;;;5068077;28;20525;-87
2021/09/25 12:14:11;;;;;;;4.57;1.25;;;;;;;;;;5057585;28;20094;-87
2021/09/25 12:16:37;;;;;;;4.20;1.13;;;;;;;;;;5066880;28;20089;-87
2021/09/25 12:19:04;;;;;;;4.47;1.20;;;;;;;;;;5062295;28;20045;-87
2021/09/25 12:21:31;;;;;;;2.95;1.00;;;;;;;;;;5067638;28;20115;-84
2021/09/25 12:24:06;;;;;;;4.53;0.90;;;;;;;;;;5069954;28;20067;-83
2021/09/25 12:26:34;;;;;;;4.28;1.20;;;;;;;;;;5078176;28;20039;-81
2021/09/25 12:29:01;;;;;;;5.18;1.10;;;;;;;;;;5084235;28;20032;-80
2021/09/25 12:31:28;;;;;;;4.72;1.10;;;;;;;;;;5078002;28;20055;-82
2021/09/25 12:33:57;;;;;;;3.53;0.95;;;;;;;;;;5081462;27;20080;-82
2021/09/25 12:36:28;;;;;;;4.57;1.15;;;;;;;;;;5066520;28;20142;-82
2021/09/25 12:38:59;;;;;;;4.80;0.95;;;;;;;;;;5068416;28;20036;-82
2021/09/25 12:41:26;;;;;;;5.50;1.30;;;;;;;;;;5068362;28;20109;-82
2021/09/25 12:43:58;;;;;;;4.78;1.20;;;;;;;;;;5070398;28;20024;-82
2021/09/25 12:46:24;;;;;;;;;;;;;;;;;;5083056;28;20142;-82
2021/09/25 12:49:03;;;;;;;3.08;1.10;;;;;;;;;;5066390;28;19943;-82
2021/09/25 12:51:30;;;;;;;3.80;0.73;;;;;;;;;;5067515;28;20024;-83
2021/09/25 12:53:57;;;;;;;4.60;1.10;;;;;;;;;;5074271;28;20538;-82
2021/09/25 12:56:24;;;;;;;2.30;0.98;;;;;;;;;;5084595;28;20605;-82
2021/09/25 12:58:52;;;;;;;1.77;0.80;;;;;;;;;;5086473;28;20158;-83
2021/09/25 13:01:25;;;;;;;6.18;1.65;;;;;;;;;;5057498;28;20117;-83
2021/09/25 13:03:52;;;;;;;2.33;0.77;;;;;;;;;;5074305;28;20090;-83
2021/09/25 13:06:22;;;;;;;2.95;0.77;;;;;;;;;;5055761;28;20082;-83
2021/09/25 13:09:01;;;;;;;4.15;1.13;;;;;;;;;;5076597;27;20059;-82
2021/09/25 13:11:28;;;;;;;2.88;1.00;;;;;;;;;;5055833;28;20055;-83
2021/09/25 13:14:08;;;;;;;2.95;0.73;;;;;;;;;;5079980;28;20052;-83
2021/09/25 13:16:35;;;;;;;4.03;0.95;;;;;;;;;;5071583;28;20098;-83
2021/09/25 13:19:01;;;;;;;4.93;0.93;;;;;;;;;;5062335;28;20044;-83
2021/09/25 13:21:28;;;;;;;4.15;0.95;;;;;;;;;;5060226;28;20101;-83
2021/09/25 13:24:00;;;;;;;3.00;0.90;;;;;;;;;;5067631;28;20064;-83
2021/09/25 13:26:27;;;;;;;3.33;1.05;;;;;;;;;;5063525;28;20048;-83
2021/09/25 13:28:53;;;;;;;2.40;1.10;;;;;;;;;;5064172;28;20055;-82
2021/09/25 13:31:20;;;;;;;4.60;1.15;;;;;;;;;;5077104;28;20072;-82
2021/09/25 13:33:46;;;;;;;2.78;0.90;;;;;;;;;;5071370;28;20028;-82
2021/09/25 13:36:12;;;;;;;2.92;0.88;;;;;;;;;;5067549;28;20059;-82
2021/09/25 13:38:39;;;;;;;4.22;1.20;;;;;;;;;;5066348;28;20032;-82
2021/09/25 13:41:05;;;;;;;2.72;0.75;;;;;;;;;;5057848;28;20126;-82
2021/09/25 13:43:32;;;;;;;2.83;0.68;;;;;;;;;;5058464;28;20579;-82
2021/09/25 13:45:58;;;;;;;3.83;0.90;;;;;;;;;;5052383;28;20581;-83
2021/09/25 13:48:24;;;;;;;3.90;0.80;;;;;;;;;;5055607;28;20086;-82
2021/09/25 13:50:51;;;;;;;2.10;0.73;;;;;;;;;;5068279;28;20614;-83
2021/09/25 13:53:17;;;;;;;4.05;0.80;;;;;;;;;;5064413;28;20056;-82
2021/09/25 13:55:44;;;;;;;4.28;1.00;;;;;;;;;;5064940;28;20056;-83
2021/09/25 13:58:12;;;;;;;1.27;0.50;;;;;;;;;;5081400;28;20062;-83
2021/09/25 14:00:41;;;;;;;2.40;0.82;;;;;;;;;;5048094;28;20445;-83
2021/09/25 14:03:08;;;;;;;2.65;0.60;;;;;;;;;;5066322;28;20456;-82
2021/09/25 14:05:35;;;;;;;3.05;1.02;;;;;;;;;;5055005;28;20146;-83
2021/09/25 14:08:03;;;;;;;3.10;1.00;;;;;;;;;;5055979;28;20064;-83
2021/09/25 14:10:29;;;;;;;4.22;1.20;;;;;;;;;;5055346;28;20109;-83
2021/09/25 14:12:56;;;;;;;1.77;0.63;;;;;;;;;;5046998;28;20052;-83
2021/09/25 14:15:22;;;;;;;3.65;0.70;;;;;;;;;;5083326;28;20514;-84
2021/09/25 14:17:50;;;;;;;2.38;0.90;;;;;;;;;;5069314;28;20059;-85
2021/09/25 14:20:16;;;;;;;2.63;0.80;;;;;;;;;;5075923;28;20068;-83
2021/09/25 14:22:43;;;;;;;2.15;0.70;;;;;;;;;;5049184;28;20064;-83
2021/09/25 14:25:10;;;;;;;4.47;0.80;;;;;;;;;;5080679;28;20076;-84
2021/09/25 14:27:36;;;;;;;2.65;0.57;;;;;;;;;;5083449;28;20051;-89
2021/09/25 14:30:03;;;;;;;3.10;0.80;;;;;;;;;;5085569;28;20060;-89
2021/09/25 14:32:29;;;;;;;3.13;0.73;;;;;;;;;;5084041;28;20059;-90
2021/09/25 14:34:55;;;;;;;3.25;0.70;;;;;;;;;;5065675;28;20086;-89
2021/09/25 14:37:22;;;;;;;2.97;0.75;;;;;;;;;;5083344;28;20060;-90
2021/09/25 14:39:49;;;;;;;3.70;0.70;;;;;;;;;;5085236;28;20505;-87
2021/09/25 14:42:15;;;;;;;2.78;0.60;;;;;;;;;;5079885;28;20056;-86
2021/09/25 14:44:41;;;;;;;4.20;1.13;;;;;;;;;;5087135;28;20076;-85